createdAt,value
2023-04-11T00:01:04.757Z,10.11
2023-04-11T00:05:05.662Z,10.12
2023-04-11T00:09:00.103Z,10.20
2023-04-11T00:13:00.778Z,10.22
2023-04-11T00:16:58.490Z,10.32
2023-04-11T00:20:59.044Z,10.32
2023-04-11T00:24:56.628Z,10.28
2023-04-11T00:28:57.359Z,10.24
2023-04-11T00:32:52.027Z,10.39
2023-04-11T00:36:58.608Z,10.39
2023-04-11T00:40:58.492Z,10.36
2023-04-11T00:44:57.534Z,10.32
2023-04-11T00:48:46.940Z,10.26
2023-04-11T00:52:41.650Z,10.22
2023-04-11T00:56:31.594Z,10.15
2023-04-11T01:00:18.710Z,10.05
2023-04-11T01:04:06.811Z,9.92
2023-04-11T01:07:53.312Z,9.92
2023-04-11T01:11:41.302Z,9.80
2023-04-11T01:15:27.878Z,9.62
2023-04-11T01:19:16.313Z,9.45
2023-04-11T01:23:04.795Z,9.34
2023-04-11T01:26:52.730Z,9.27
2023-04-11T01:30:39.924Z,9.31
2023-04-11T01:34:28.926Z,9.52
2023-04-11T01:38:16.465Z,9.65
2023-04-11T01:42:03.022Z,9.69
2023-04-11T01:46:02.601Z,9.79
2023-04-11T01:50:06.184Z,9.90
2023-04-11T01:54:05.754Z,9.95
2023-04-11T01:58:08.740Z,10.00
2023-04-11T02:02:12.824Z,10.01
2023-04-11T02:06:16.313Z,10.02
2023-04-11T02:10:19.661Z,10.04
2023-04-11T02:14:22.775Z,10.04
2023-04-11T02:18:24.648Z,9.97
2023-04-11T02:22:27.858Z,9.90
2023-04-11T02:26:27.690Z,9.84
2023-04-11T02:30:41.881Z,9.84
2023-04-11T02:34:42.825Z,9.83
2023-04-11T02:38:46.273Z,9.59
2023-04-11T02:42:45.637Z,9.40
2023-04-11T02:46:49.298Z,9.30
2023-04-11T02:50:51.831Z,9.35
2023-04-11T02:54:55.162Z,9.39
2023-04-11T02:58:58.117Z,9.31
2023-04-11T03:03:02.594Z,9.32
2023-04-11T03:06:44.907Z,9.28
2023-04-11T03:10:47.839Z,9.21
2023-04-11T03:14:51.744Z,9.22
2023-04-11T03:18:52.928Z,9.27
2023-04-11T03:22:55.670Z,9.31
2023-04-11T03:26:57.833Z,9.31
2023-04-11T03:31:05.781Z,9.20
2023-04-11T03:35:07.034Z,9.24
2023-04-11T03:39:10.686Z,9.26
2023-04-11T03:43:10.937Z,9.30
2023-04-11T03:47:14.449Z,9.27
2023-04-11T03:51:14.910Z,9.27
2023-04-11T03:55:23.002Z,9.23
2023-04-11T03:59:25.746Z,9.19
2023-04-11T04:03:29.272Z,9.16
2023-04-11T04:07:34.893Z,9.17
2023-04-11T04:11:44.909Z,9.33
2023-04-11T04:15:56.582Z,9.42
2023-04-11T04:19:56.963Z,9.64
2023-04-11T04:24:07.974Z,9.68
2023-04-11T04:28:36.776Z,9.79
2023-04-11T04:32:39.931Z,9.91
2023-04-11T04:36:59.118Z,10.03
2023-04-11T04:41:09.466Z,10.15
2023-04-11T04:45:12.092Z,10.20
2023-04-11T04:49:17.083Z,10.35
2023-04-11T04:53:18.802Z,10.41
2023-04-11T04:57:25.506Z,10.55
2023-04-11T05:01:30.210Z,10.62
2023-04-11T05:05:34.989Z,10.69
2023-04-11T05:09:37.068Z,10.76
2023-04-11T05:13:52.042Z,10.88
2023-04-11T05:17:55.803Z,11.11
2023-04-11T05:22:00.052Z,11.34
2023-04-11T05:26:06.045Z,11.67
2023-04-11T05:30:09.733Z,11.94
2023-04-11T05:34:13.070Z,12.04
2023-04-11T05:38:17.107Z,12.21
2023-04-11T05:42:16.980Z,12.19
2023-04-11T05:46:24.879Z,12.18
2023-04-11T05:50:24.953Z,12.32
2023-04-11T05:54:28.647Z,12.48
2023-04-11T05:58:28.839Z,12.68
2023-04-11T06:02:31.407Z,12.85
2023-04-11T06:06:36.410Z,13.02
2023-04-11T06:10:39.261Z,13.17
2023-04-11T06:14:45.174Z,13.37
2023-04-11T06:18:48.061Z,13.54
2023-04-11T06:22:31.709Z,13.75
2023-04-11T06:26:31.125Z,13.92
2023-04-11T06:30:34.245Z,14.10
2023-04-11T06:34:35.294Z,14.26
2023-04-11T06:38:38.662Z,14.36
2023-04-11T06:42:36.909Z,14.36
2023-04-11T06:46:38.276Z,14.27
2023-04-11T06:50:40.388Z,14.45
2023-04-11T06:54:40.755Z,14.55
2023-04-11T06:58:38.248Z,14.74
2023-04-11T07:02:39.014Z,14.83
2023-04-11T07:06:36.512Z,14.92
2023-04-11T07:10:37.456Z,14.94
2023-04-11T07:14:42.787Z,15.11
2023-04-11T07:18:44.913Z,15.18
2023-04-11T07:22:37.371Z,15.20
2023-04-11T07:26:38.103Z,15.16
2023-04-11T07:30:35.458Z,15.29
2023-04-11T07:34:37.340Z,15.50
2023-04-11T07:38:34.590Z,15.68
2023-04-11T07:42:36.234Z,15.86
2023-04-11T07:46:33.290Z,16.02
2023-04-11T07:50:33.834Z,16.24
2023-04-11T07:54:30.553Z,16.40
2023-04-11T07:58:30.719Z,16.59
2023-04-11T08:02:27.810Z,16.70
2023-04-11T08:06:28.241Z,16.73
2023-04-11T08:10:25.414Z,16.88
2023-04-11T08:14:26.140Z,17.03
2023-04-11T08:18:23.851Z,17.19
2023-04-11T08:22:24.412Z,17.37
2023-04-11T08:26:21.601Z,17.81
2023-04-11T08:30:25.677Z,18.06
2023-04-11T08:34:23.339Z,18.04
2023-04-11T08:38:23.543Z,18.08
2023-04-11T08:42:09.782Z,18.23
2023-04-11T08:45:56.092Z,18.48
2023-04-11T08:49:42.328Z,18.67
2023-04-11T08:53:29.017Z,18.80
2023-04-11T08:57:15.189Z,19.10
2023-04-11T09:01:07.600Z,19.50
2023-04-11T09:05:07.906Z,19.73
2023-04-11T09:09:05.225Z,19.68
2023-04-11T09:13:06.136Z,19.78
2023-04-11T09:16:59.227Z,19.89
2023-04-11T09:21:04.894Z,20.04
2023-04-11T09:24:59.456Z,20.21
2023-04-11T09:29:00.419Z,20.28
2023-04-11T09:32:57.624Z,20.33
2023-04-11T09:36:58.236Z,20.32
2023-04-11T09:40:55.558Z,20.26
2023-04-11T09:44:57.558Z,20.10
2023-04-11T09:48:54.321Z,20.08
2023-04-11T09:52:57.660Z,19.86
2023-04-11T09:56:56.545Z,19.59
2023-04-11T10:00:56.623Z,19.30
2023-04-11T10:04:53.772Z,19.29
2023-04-11T10:08:56.019Z,19.73
2023-04-11T10:12:55.244Z,20.11
2023-04-11T10:16:57.790Z,20.50
2023-04-11T10:20:56.014Z,20.87
2023-04-11T10:24:56.770Z,21.00
2023-04-11T10:28:53.557Z,21.04
2023-04-11T10:32:54.515Z,20.99
2023-04-11T10:36:56.983Z,21.18
2023-04-11T10:40:57.833Z,21.34
2023-04-11T10:44:55.671Z,21.21
2023-04-11T10:48:50.936Z,21.07
2023-04-11T10:52:51.862Z,21.19
2023-04-11T10:56:52.790Z,21.37
2023-04-11T11:00:50.245Z,21.36
2023-04-11T11:04:51.742Z,21.23
2023-04-11T11:08:49.594Z,21.01
2023-04-11T11:12:49.114Z,20.92
2023-04-11T11:16:46.955Z,21.00
2023-04-11T11:20:49.319Z,21.15
2023-04-11T11:24:45.884Z,21.16
2023-04-11T11:28:48.509Z,21.12
2023-04-11T11:32:49.695Z,21.42
2023-04-11T11:36:51.587Z,21.93
2023-04-11T11:40:48.795Z,22.29
2023-04-11T11:44:49.964Z,22.27
2023-04-11T11:50:16.544Z,20.04
2023-04-11T11:54:18.212Z,20.62
2023-04-11T11:58:16.944Z,20.59
2023-04-11T12:02:17.614Z,20.71
2023-04-11T12:06:15.055Z,20.53
2023-04-11T12:10:15.556Z,20.31
2023-04-11T12:14:11.924Z,20.16
2023-04-11T12:18:10.969Z,19.99
2023-04-11T12:22:08.389Z,19.82
2023-04-11T12:26:09.192Z,19.72
2023-04-11T12:30:06.341Z,19.20
2023-04-11T12:34:07.516Z,18.62
2023-04-11T12:38:08.149Z,17.77
2023-04-11T12:42:11.990Z,17.30
2023-04-11T12:46:15.079Z,17.30
2023-04-11T12:50:18.045Z,17.27
2023-04-11T12:54:17.260Z,17.24
2023-04-11T12:58:21.653Z,17.13
2023-04-11T13:02:22.004Z,16.99
2023-04-11T13:06:26.160Z,17.00
2023-04-11T13:10:26.011Z,16.93
2023-04-11T13:14:29.244Z,16.89
2023-04-11T13:18:28.362Z,16.86
2023-04-11T13:22:32.930Z,16.84
2023-04-11T13:26:33.757Z,16.81
2023-04-11T13:30:37.290Z,16.66
2023-04-11T13:34:38.222Z,16.67
2023-04-11T13:38:41.747Z,16.56
2023-04-11T13:42:45.121Z,16.48
2023-04-11T13:46:47.519Z,16.39
2023-04-11T13:50:53.326Z,16.50
2023-04-11T13:54:57.027Z,16.56
2023-04-11T13:58:57.447Z,16.59
2023-04-11T14:03:01.904Z,16.48
2023-04-11T14:07:02.374Z,16.43
2023-04-11T14:11:02.986Z,16.45
2023-04-11T14:15:06.293Z,16.28
2023-04-11T14:19:06.159Z,16.12
2023-04-11T14:23:09.792Z,16.01
2023-04-11T14:27:08.021Z,15.81
2023-04-11T14:31:11.857Z,15.81
2023-04-11T14:35:13.289Z,15.72
2023-04-11T14:39:17.541Z,15.68
2023-04-11T14:43:14.181Z,15.63
2023-04-11T14:47:14.677Z,15.65
2023-04-11T14:51:11.055Z,15.49
2023-04-11T14:55:12.651Z,15.46
2023-04-11T14:59:15.996Z,15.33
2023-04-11T15:03:17.279Z,15.24
2023-04-11T15:07:15.468Z,15.24
2023-04-11T15:11:17.534Z,15.15
2023-04-11T15:15:15.882Z,15.06
2023-04-11T15:19:17.499Z,15.01
2023-04-11T15:23:15.329Z,15.06
2023-04-11T15:27:16.540Z,15.03
2023-04-11T15:31:13.944Z,15.06
2023-04-11T15:35:14.766Z,15.10
2023-04-11T15:39:12.257Z,15.13
2023-04-11T15:43:12.665Z,15.21
2023-04-11T15:47:10.811Z,15.25
2023-04-11T15:51:11.701Z,15.29
2023-04-11T15:55:08.398Z,15.35
2023-04-11T15:59:10.513Z,15.32
2023-04-11T16:03:08.867Z,15.34
2023-04-11T16:07:09.738Z,15.36
2023-04-11T16:11:06.717Z,15.31
2023-04-11T16:15:07.882Z,15.21
2023-04-11T16:19:06.471Z,15.09
2023-04-11T16:23:07.197Z,15.06
2023-04-11T16:27:04.428Z,14.97
2023-04-11T16:31:09.564Z,14.97
2023-04-11T16:35:06.346Z,15.04
2023-04-11T16:39:04.211Z,15.08
2023-04-11T16:43:06.028Z,15.09
2023-04-11T16:47:02.853Z,15.15
2023-04-11T16:51:03.911Z,15.21
2023-04-11T16:55:00.052Z,15.32
2023-04-11T16:58:47.445Z,15.41
2023-04-11T17:02:34.986Z,15.36
2023-04-11T17:06:46.093Z,15.21
2023-04-11T17:10:40.862Z,15.04
2023-04-11T17:14:41.619Z,14.91
2023-04-11T17:18:39.768Z,14.88
2023-04-11T17:22:49.668Z,14.87
2023-04-11T17:26:46.810Z,14.79
2023-04-11T17:30:45.589Z,14.64
2023-04-11T17:34:42.504Z,14.54
2023-04-11T17:38:41.556Z,14.40
2023-04-11T17:42:28.482Z,14.42
2023-04-11T17:46:22.467Z,14.52
2023-04-11T17:50:09.594Z,14.57
2023-04-11T17:54:02.621Z,14.52
2023-04-11T17:57:57.547Z,14.53
2023-04-11T18:01:50.432Z,14.61
2023-04-11T18:05:47.641Z,14.65
2023-04-11T18:09:49.262Z,14.67
2023-04-11T18:13:49.273Z,14.79
2023-04-11T18:17:52.432Z,14.79
2023-04-11T18:21:50.750Z,14.70
2023-04-11T18:25:51.343Z,14.47
2023-04-11T18:29:38.466Z,14.25
2023-04-11T18:33:32.137Z,14.05
2023-04-11T18:37:23.403Z,13.86
2023-04-11T18:41:18.660Z,13.62
2023-04-11T18:45:18.714Z,13.32
2023-04-11T18:49:20.472Z,13.14
2023-04-11T18:53:18.117Z,12.96
2023-04-11T18:57:19.889Z,12.83
2023-04-11T19:01:17.668Z,12.78
2023-04-11T19:05:20.638Z,12.64
2023-04-11T19:09:18.201Z,12.44
2023-04-11T19:13:23.250Z,12.27
2023-04-11T19:17:11.552Z,12.18
2023-04-11T19:21:04.909Z,12.20
2023-04-11T19:24:52.026Z,12.15
2023-04-11T19:28:45.343Z,12.14
2023-04-11T19:32:58.663Z,12.11
2023-04-11T19:36:59.773Z,12.21
2023-04-11T19:40:56.997Z,12.15
2023-04-11T19:44:58.208Z,12.18
2023-04-11T19:48:56.549Z,12.22
2023-04-11T19:52:56.361Z,12.02
2023-04-11T19:56:56.924Z,11.57
2023-04-11T20:00:56.270Z,11.52
2023-04-11T20:04:44.607Z,11.45
2023-04-11T20:08:31.925Z,11.29
2023-04-11T20:12:19.536Z,11.18
2023-04-11T20:16:06.705Z,11.15
2023-04-11T20:20:01.188Z,11.12
2023-04-11T20:24:06.224Z,11.08
2023-04-11T20:28:04.548Z,10.95
2023-04-11T20:32:05.992Z,10.95
2023-04-11T20:36:07.896Z,10.99
2023-04-11T20:40:09.897Z,11.10
2023-04-11T20:44:07.529Z,11.08
2023-04-11T20:48:08.949Z,11.06
2023-04-11T20:51:55.791Z,11.03
2023-04-11T20:55:42.554Z,11.08
2023-04-11T20:59:36.952Z,10.97
2023-04-11T21:03:34.746Z,10.98
2023-04-11T21:07:32.354Z,11.04
2023-04-11T21:11:33.572Z,11.08
2023-04-11T21:15:35.330Z,11.06
2023-04-11T21:19:36.563Z,11.09
2023-04-11T21:23:38.987Z,11.14
2023-04-11T21:27:40.483Z,11.18
2023-04-11T21:31:35.566Z,11.16
2023-04-11T21:35:22.354Z,11.12
2023-04-11T21:39:09.082Z,11.17
2023-04-11T21:42:56.081Z,11.19
2023-04-11T21:46:49.098Z,11.17
2023-04-11T21:50:42.147Z,11.22
2023-04-11T21:54:37.316Z,11.21
2023-04-11T21:58:38.389Z,11.25
2023-04-11T22:02:36.102Z,11.29
2023-04-11T22:06:37.318Z,11.25
2023-04-11T22:10:44.802Z,11.19
2023-04-11T22:14:53.336Z,11.24
2023-04-11T22:18:51.009Z,11.24
2023-04-11T22:22:52.124Z,11.16
2023-04-11T22:26:39.157Z,11.17
2023-04-11T22:30:26.232Z,11.15
2023-04-11T22:34:13.094Z,11.15
2023-04-11T22:38:00.326Z,11.19
2023-04-11T22:41:46.886Z,11.18
2023-04-11T22:45:40.186Z,11.15
2023-04-11T22:49:35.645Z,11.19
2023-04-11T22:53:29.233Z,11.26
2023-04-11T22:57:27.773Z,11.26
2023-04-11T23:01:31.926Z,11.27
2023-04-11T23:05:29.819Z,11.25
2023-04-11T23:09:31.476Z,11.24
2023-04-11T23:13:31.335Z,11.15
2023-04-11T23:17:35.185Z,11.17
2023-04-11T23:21:39.611Z,11.16
2023-04-11T23:25:26.735Z,11.24
2023-04-11T23:29:13.514Z,11.27
2023-04-11T23:33:00.283Z,11.25
2023-04-11T23:36:48.392Z,11.20
2023-04-11T23:40:35.375Z,11.24
2023-04-11T23:44:22.320Z,11.29
2023-04-11T23:48:11.616Z,11.29
2023-04-11T23:51:58.832Z,11.22
2023-04-11T23:55:45.631Z,11.27
2023-04-11T23:59:38.998Z,11.34
